Yur'yev-Pol'skiy, Russia
Current Conditions -  °F | °C
As of 2:00 PM on Friday 31 Oct 2014 (Local Time) from UUEE Reporting Station
Broken Clouds Broken Clouds  
Wind Chill: 28°   Ceiling: 1000
Heat Index: 36°   Visibility: 4mi
Dew Point: 30°   Wind: 11mph
Humidity: 81%   Direction: 310°NW
Pressure: 30.09"   Gusts: NA
Location:  56.3°N, 39.41°E
Report Text: UUEE 311100Z 31005MPS 7000 BKN010 02/M01 Q1019 7500006225190057 NOSIG
Loading
Personal Weather Stations






























Interactive Weather Map
Tropical Storm Tracking
New forecast layout! Learn more

10-Day Weather Forecast

Advertisements
Track Severe Weather on mobile